sensor_id;sensor_type;location;lat;lon;timestamp;pressure;altitude;pressure_sealevel;temperature;humidity
10518;BME280;5307;42.548;22.968;2022-07-17T00:00:39;94231.59;;;18.94;81.38
10518;BME280;5307;42.548;22.968;2022-07-17T00:03:07;94229.84;;;18.96;80.29
10518;BME280;5307;42.548;22.968;2022-07-17T00:05:34;94215.72;;;18.89;80.92
10518;BME280;5307;42.548;22.968;2022-07-17T00:08:03;94229.81;;;18.91;81.48
10518;BME280;5307;42.548;22.968;2022-07-17T00:10:31;94239.66;;;18.97;81.08
10518;BME280;5307;42.548;22.968;2022-07-17T00:12:58;94241.19;;;18.98;80.81
10518;BME280;5307;42.548;22.968;2022-07-17T00:15:25;94237.09;;;18.88;81.84
10518;BME280;5307;42.548;22.968;2022-07-17T00:17:52;94244.66;;;18.88;82.16
10518;BME280;5307;42.548;22.968;2022-07-17T00:20:19;94241.34;;;19.21;81.46
10518;BME280;5307;42.548;22.968;2022-07-17T00:22:46;94238.31;;;19.19;81.12
10518;BME280;5307;42.548;22.968;2022-07-17T00:25:14;94241.59;;;19.23;80.25
10518;BME280;5307;42.548;22.968;2022-07-17T00:27:41;94238.25;;;19.08;81.63
10518;BME280;5307;42.548;22.968;2022-07-17T00:30:09;94236.97;;;19.09;81.64
10518;BME280;5307;42.548;22.968;2022-07-17T00:32:36;94239.22;;;19.05;82.00
10518;BME280;5307;42.548;22.968;2022-07-17T00:35:03;94237.50;;;19.13;82.11
10518;BME280;5307;42.548;22.968;2022-07-17T00:37:30;94236.88;;;18.92;82.55
10518;BME280;5307;42.548;22.968;2022-07-17T00:39:57;94237.97;;;19.06;83.01
10518;BME280;5307;42.548;22.968;2022-07-17T00:42:26;94244.69;;;18.93;82.24
10518;BME280;5307;42.548;22.968;2022-07-17T00:44:53;94246.19;;;18.94;82.05
10518;BME280;5307;42.548;22.968;2022-07-17T00:47:20;94248.25;;;18.99;81.33
10518;BME280;5307;42.548;22.968;2022-07-17T00:49:53;94254.25;;;18.92;81.54
10518;BME280;5307;42.548;22.968;2022-07-17T00:52:20;94252.19;;;18.87;81.14
10518;BME280;5307;42.548;22.968;2022-07-17T00:54:47;94256.25;;;18.92;80.21
10518;BME280;5307;42.548;22.968;2022-07-17T00:57:15;94255.44;;;19.17;78.98
10518;BME280;5307;42.548;22.968;2022-07-17T00:59:43;94253.81;;;19.05;77.94
10518;BME280;5307;42.548;22.968;2022-07-17T01:02:11;94245.59;;;19.16;77.10
10518;BME280;5307;42.548;22.968;2022-07-17T01:04:40;94248.25;;;18.99;77.42
10518;BME280;5307;42.548;22.968;2022-07-17T01:07:08;94246.91;;;18.89;78.87
10518;BME280;5307;42.548;22.968;2022-07-17T01:09:35;94246.69;;;18.93;78.95
10518;BME280;5307;42.548;22.968;2022-07-17T01:12:02;94247.44;;;18.93;78.67
10518;BME280;5307;42.548;22.968;2022-07-17T01:14:29;94251.50;;;18.98;78.18
10518;BME280;5307;42.548;22.968;2022-07-17T01:16:59;94243.66;;;18.91;78.78
10518;BME280;5307;42.548;22.968;2022-07-17T01:19:26;94243.69;;;18.96;79.04
10518;BME280;5307;42.548;22.968;2022-07-17T01:21:54;94237.09;;;18.88;79.29
10518;BME280;5307;42.548;22.968;2022-07-17T01:24:21;94247.19;;;18.91;81.17
10518;BME280;5307;42.548;22.968;2022-07-17T01:26:48;94251.28;;;19.02;78.70
10518;BME280;5307;42.548;22.968;2022-07-17T01:29:16;94263.41;;;19.10;77.67
10518;BME280;5307;42.548;22.968;2022-07-17T01:31:43;94252.53;;;19.01;77.09
10518;BME280;5307;42.548;22.968;2022-07-17T01:34:11;94257.09;;;19.04;77.11
10518;BME280;5307;42.548;22.968;2022-07-17T01:36:39;94260.25;;;18.91;78.63
10518;BME280;5307;42.548;22.968;2022-07-17T01:39:07;94267.19;;;18.75;79.38
10518;BME280;5307;42.548;22.968;2022-07-17T01:41:34;94262.78;;;18.89;79.82
10518;BME280;5307;42.548;22.968;2022-07-17T01:44:02;94260.84;;;18.69;79.67
10518;BME280;5307;42.548;22.968;2022-07-17T01:46:30;94249.16;;;18.59;80.06
10518;BME280;5307;42.548;22.968;2022-07-17T01:48:57;94262.25;;;18.59;81.29
10518;BME280;5307;42.548;22.968;2022-07-17T01:51:24;94257.47;;;18.59;81.53
10518;BME280;5307;42.548;22.968;2022-07-17T01:53:50;94254.38;;;18.52;82.33
10518;BME280;5307;42.548;22.968;2022-07-17T01:56:18;94252.41;;;18.58;82.50
10518;BME280;5307;42.548;22.968;2022-07-17T01:58:45;94242.28;;;18.49;82.77
10518;BME280;5307;42.548;22.968;2022-07-17T02:01:12;94250.03;;;18.45;82.44
10518;BME280;5307;42.548;22.968;2022-07-17T02:03:39;94251.94;;;18.59;83.36
10518;BME280;5307;42.548;22.968;2022-07-17T02:06:06;94250.88;;;18.57;82.44
10518;BME280;5307;42.548;22.968;2022-07-17T02:08:35;94244.28;;;18.49;82.62
10518;BME280;5307;42.548;22.968;2022-07-17T02:11:02;94251.28;;;18.44;82.83
10518;BME280;5307;42.548;22.968;2022-07-17T02:13:30;94247.31;;;18.51;82.46
10518;BME280;5307;42.548;22.968;2022-07-17T02:15:57;94248.19;;;18.36;81.22
10518;BME280;5307;42.548;22.968;2022-07-17T02:18:24;94255.78;;;18.67;79.81
10518;BME280;5307;42.548;22.968;2022-07-17T02:20:50;94253.25;;;18.64;81.30
10518;BME280;5307;42.548;22.968;2022-07-17T02:23:17;94254.34;;;18.72;83.31
10518;BME280;5307;42.548;22.968;2022-07-17T02:25:44;94252.78;;;18.71;83.69
10518;BME280;5307;42.548;22.968;2022-07-17T02:28:11;94256.41;;;18.57;82.03
10518;BME280;5307;42.548;22.968;2022-07-17T02:30:39;94258.22;;;18.60;83.27
10518;BME280;5307;42.548;22.968;2022-07-17T02:33:06;94269.56;;;18.88;78.46
10518;BME280;5307;42.548;22.968;2022-07-17T02:35:33;94259.38;;;18.48;81.37
10518;BME280;5307;42.548;22.968;2022-07-17T02:38:00;94263.75;;;18.60;81.76
10518;BME280;5307;42.548;22.968;2022-07-17T02:40:27;94259.63;;;18.50;81.60
10518;BME280;5307;42.548;22.968;2022-07-17T02:42:54;94270.44;;;18.48;79.89
10518;BME280;5307;42.548;22.968;2022-07-17T02:45:20;94272.91;;;18.72;80.48
10518;BME280;5307;42.548;22.968;2022-07-17T02:47:52;94266.84;;;18.67;79.60
10518;BME280;5307;42.548;22.968;2022-07-17T02:50:20;94270.88;;;18.66;79.25
10518;BME280;5307;42.548;22.968;2022-07-17T02:52:47;94266.19;;;18.26;82.05
10518;BME280;5307;42.548;22.968;2022-07-17T02:55:15;94272.38;;;18.42;79.25
10518;BME280;5307;42.548;22.968;2022-07-17T02:57:43;94274.19;;;18.45;78.62
10518;BME280;5307;42.548;22.968;2022-07-17T03:00:13;94280.66;;;18.42;79.87
10518;BME280;5307;42.548;22.968;2022-07-17T03:02:42;94285.66;;;18.37;81.26
10518;BME280;5307;42.548;22.968;2022-07-17T03:05:10;94285.63;;;18.32;80.17
10518;BME280;5307;42.548;22.968;2022-07-17T03:07:38;94289.53;;;18.46;80.43
10518;BME280;5307;42.548;22.968;2022-07-17T03:10:05;94302.41;;;18.28;80.62
10518;BME280;5307;42.548;22.968;2022-07-17T03:12:33;94300.97;;;18.13;81.99
10518;BME280;5307;42.548;22.968;2022-07-17T03:14:59;94302.00;;;18.15;81.81
10518;BME280;5307;42.548;22.968;2022-07-17T03:17:26;94299.53;;;18.17;80.86
10518;BME280;5307;42.548;22.968;2022-07-17T03:20:17;94298.06;;;18.22;80.37
10518;BME280;5307;42.548;22.968;2022-07-17T03:22:44;94299.53;;;18.17;80.37
10518;BME280;5307;42.548;22.968;2022-07-17T03:25:10;94312.94;;;18.50;79.98
10518;BME280;5307;42.548;22.968;2022-07-17T03:27:37;94314.41;;;18.46;81.92
10518;BME280;5307;42.548;22.968;2022-07-17T03:30:05;94316.84;;;18.38;81.35
10518;BME280;5307;42.548;22.968;2022-07-17T03:32:32;94314.31;;;18.14;83.42
10518;BME280;5307;42.548;22.968;2022-07-17T03:34:59;94323.28;;;18.29;82.44
10518;BME280;5307;42.548;22.968;2022-07-17T03:37:29;94333.25;;;18.21;84.29
10518;BME280;5307;42.548;22.968;2022-07-17T03:39:56;94328.75;;;18.24;84.63
10518;BME280;5307;42.548;22.968;2022-07-17T03:42:23;94335.66;;;18.14;83.75
10518;BME280;5307;42.548;22.968;2022-07-17T03:44:49;94332.16;;;17.93;85.56
10518;BME280;5307;42.548;22.968;2022-07-17T03:47:16;94313.44;;;18.02;82.96
10518;BME280;5307;42.548;22.968;2022-07-17T03:49:43;94327.44;;;17.99;81.28
10518;BME280;5307;42.548;22.968;2022-07-17T03:52:10;94324.34;;;18.32;79.57
10518;BME280;5307;42.548;22.968;2022-07-17T03:54:38;94327.94;;;18.44;80.38
10518;BME280;5307;42.548;22.968;2022-07-17T03:57:05;94319.00;;;18.28;81.62
10518;BME280;5307;42.548;22.968;2022-07-17T03:59:31;94319.66;;;18.44;83.28
10518;BME280;5307;42.548;22.968;2022-07-17T04:01:58;94333.78;;;18.46;82.55
10518;BME280;5307;42.548;22.968;2022-07-17T04:04:25;94342.13;;;18.51;82.49
10518;BME280;5307;42.548;22.968;2022-07-17T04:06:52;94342.41;;;18.53;81.00
10518;BME280;5307;42.548;22.968;2022-07-17T04:09:19;94344.66;;;18.55;81.70
10518;BME280;5307;42.548;22.968;2022-07-17T04:11:47;94339.84;;;18.50;81.91
10518;BME280;5307;42.548;22.968;2022-07-17T04:14:14;94343.88;;;18.49;82.82
10518;BME280;5307;42.548;22.968;2022-07-17T04:16:40;94350.06;;;18.44;81.22
10518;BME280;5307;42.548;22.968;2022-07-17T04:19:07;94350.16;;;18.49;81.35
10518;BME280;5307;42.548;22.968;2022-07-17T04:21:34;94349.72;;;18.56;80.67
10518;BME280;5307;42.548;22.968;2022-07-17T04:24:01;94357.25;;;18.56;80.75
10518;BME280;5307;42.548;22.968;2022-07-17T04:26:27;94359.94;;;18.71;76.75
10518;BME280;5307;42.548;22.968;2022-07-17T04:28:56;94351.28;;;18.83;76.66
10518;BME280;5307;42.548;22.968;2022-07-17T04:31:22;94352.28;;;19.12;72.76
10518;BME280;5307;42.548;22.968;2022-07-17T04:33:49;94356.94;;;19.26;71.56
10518;BME280;5307;42.548;22.968;2022-07-17T04:36:18;94353.06;;;19.44;65.44
10518;BME280;5307;42.548;22.968;2022-07-17T04:38:45;94360.50;;;19.64;66.84
10518;BME280;5307;42.548;22.968;2022-07-17T04:41:12;94361.38;;;19.81;65.28
10518;BME280;5307;42.548;22.968;2022-07-17T04:43:38;94365.72;;;19.93;66.40
10518;BME280;5307;42.548;22.968;2022-07-17T04:46:07;94363.78;;;20.10;64.84
10518;BME280;5307;42.548;22.968;2022-07-17T04:48:34;94369.53;;;20.44;63.40
10518;BME280;5307;42.548;22.968;2022-07-17T04:51:01;94368.69;;;20.38;63.62
10518;BME280;5307;42.548;22.968;2022-07-17T04:53:28;94367.56;;;20.61;62.90
10518;BME280;5307;42.548;22.968;2022-07-17T04:55:56;94368.78;;;20.49;63.17
10518;BME280;5307;42.548;22.968;2022-07-17T04:58:23;94370.50;;;20.41;64.73
10518;BME280;5307;42.548;22.968;2022-07-17T05:00:49;94372.84;;;20.05;65.30
10518;BME280;5307;42.548;22.968;2022-07-17T05:03:17;94379.41;;;20.02;65.28
10518;BME280;5307;42.548;22.968;2022-07-17T05:05:44;94376.28;;;19.89;66.75
10518;BME280;5307;42.548;22.968;2022-07-17T05:08:11;94381.09;;;19.89;68.25
10518;BME280;5307;42.548;22.968;2022-07-17T05:10:38;94382.94;;;20.08;66.52
10518;BME280;5307;42.548;22.968;2022-07-17T05:13:08;94384.31;;;20.30;65.44
10518;BME280;5307;42.548;22.968;2022-07-17T05:15:34;94383.91;;;20.42;64.13
10518;BME280;5307;42.548;22.968;2022-07-17T05:18:02;94389.25;;;20.63;63.03
10518;BME280;5307;42.548;22.968;2022-07-17T05:20:30;94390.34;;;20.88;62.44
10518;BME280;5307;42.548;22.968;2022-07-17T05:22:57;94390.06;;;20.80;62.44
10518;BME280;5307;42.548;22.968;2022-07-17T05:25:23;94393.91;;;21.05;63.21
10518;BME280;5307;42.548;22.968;2022-07-17T05:27:51;94389.44;;;21.58;58.84
10518;BME280;5307;42.548;22.968;2022-07-17T05:30:17;94396.00;;;21.55;59.04
10518;BME280;5307;42.548;22.968;2022-07-17T05:32:44;94396.97;;;21.85;59.21
10518;BME280;5307;42.548;22.968;2022-07-17T05:35:11;94395.47;;;21.84;58.07
10518;BME280;5307;42.548;22.968;2022-07-17T05:37:39;94394.94;;;21.80;58.91
10518;BME280;5307;42.548;22.968;2022-07-17T05:40:07;94397.91;;;22.38;58.35
10518;BME280;5307;42.548;22.968;2022-07-17T05:42:34;94406.25;;;22.33;58.18
10518;BME280;5307;42.548;22.968;2022-07-17T05:45:01;94393.53;;;22.48;57.22
10518;BME280;5307;42.548;22.968;2022-07-17T05:47:28;94394.19;;;22.83;56.29
10518;BME280;5307;42.548;22.968;2022-07-17T05:49:55;94400.38;;;22.47;57.13
10518;BME280;5307;42.548;22.968;2022-07-17T05:52:22;94394.44;;;22.85;55.37
10518;BME280;5307;42.548;22.968;2022-07-17T05:54:50;94392.28;;;22.49;57.43
10518;BME280;5307;42.548;22.968;2022-07-17T05:57:17;94397.34;;;22.45;57.92
10518;BME280;5307;42.548;22.968;2022-07-17T05:59:44;94397.38;;;22.40;55.33
10518;BME280;5307;42.548;22.968;2022-07-17T06:02:11;94392.16;;;22.83;55.36
10518;BME280;5307;42.548;22.968;2022-07-17T06:04:37;94389.63;;;22.74;55.69
10518;BME280;5307;42.548;22.968;2022-07-17T06:07:04;94392.72;;;23.17;55.44
10518;BME280;5307;42.548;22.968;2022-07-17T06:09:31;94391.03;;;23.74;52.42
10518;BME280;5307;42.548;22.968;2022-07-17T06:11:59;94399.22;;;23.66;51.71
10518;BME280;5307;42.548;22.968;2022-07-17T06:14:26;94389.56;;;23.32;53.74
10518;BME280;5307;42.548;22.968;2022-07-17T06:16:56;94391.28;;;23.40;51.93
10518;BME280;5307;42.548;22.968;2022-07-17T06:19:23;94392.91;;;23.90;52.01
10518;BME280;5307;42.548;22.968;2022-07-17T06:21:50;94388.44;;;24.06;50.60
10518;BME280;5307;42.548;22.968;2022-07-17T06:24:17;94382.00;;;24.41;49.71
10518;BME280;5307;42.548;22.968;2022-07-17T06:26:44;94392.56;;;24.48;50.28
10518;BME280;5307;42.548;22.968;2022-07-17T06:29:16;94390.81;;;24.70;47.60
10518;BME280;5307;42.548;22.968;2022-07-17T06:31:43;94391.34;;;24.87;47.64
10518;BME280;5307;42.548;22.968;2022-07-17T06:34:09;94392.44;;;24.60;50.07
10518;BME280;5307;42.548;22.968;2022-07-17T06:36:37;94388.00;;;24.88;50.17
10518;BME280;5307;42.548;22.968;2022-07-17T06:39:07;94390.97;;;24.96;47.88
10518;BME280;5307;42.548;22.968;2022-07-17T06:41:34;94391.91;;;25.23;48.25
10518;BME280;5307;42.548;22.968;2022-07-17T06:44:01;94393.66;;;25.07;47.42
10518;BME280;5307;42.548;22.968;2022-07-17T06:46:29;94398.84;;;25.16;45.58
10518;BME280;5307;42.548;22.968;2022-07-17T06:48:56;94396.91;;;25.43;48.12
10518;BME280;5307;42.548;22.968;2022-07-17T06:51:23;94401.78;;;25.75;47.75
10518;BME280;5307;42.548;22.968;2022-07-17T06:53:50;94400.56;;;25.38;43.54
10518;BME280;5307;42.548;22.968;2022-07-17T06:56:17;94405.91;;;25.55;43.93
10518;BME280;5307;42.548;22.968;2022-07-17T06:58:44;94415.38;;;25.33;43.53
10518;BME280;5307;42.548;22.968;2022-07-17T07:01:10;94409.22;;;25.54;43.67
10518;BME280;5307;42.548;22.968;2022-07-17T07:03:39;94416.59;;;25.19;45.31
10518;BME280;5307;42.548;22.968;2022-07-17T07:06:06;94411.63;;;25.63;44.50
10518;BME280;5307;42.548;22.968;2022-07-17T07:08:33;94415.47;;;25.60;44.75
10518;BME280;5307;42.548;22.968;2022-07-17T07:11:01;94419.19;;;26.13;45.39
10518;BME280;5307;42.548;22.968;2022-07-17T07:13:29;94426.66;;;25.60;42.26
10518;BME280;5307;42.548;22.968;2022-07-17T07:15:56;94418.63;;;26.01;43.86
10518;BME280;5307;42.548;22.968;2022-07-17T07:18:23;94416.94;;;26.12;42.96
10518;BME280;5307;42.548;22.968;2022-07-17T07:20:51;94414.19;;;26.51;45.50
10518;BME280;5307;42.548;22.968;2022-07-17T07:23:18;94411.41;;;26.65;43.79
10518;BME280;5307;42.548;22.968;2022-07-17T07:25:45;94418.09;;;26.61;40.88
10518;BME280;5307;42.548;22.968;2022-07-17T07:28:12;94420.78;;;26.67;42.25
10518;BME280;5307;42.548;22.968;2022-07-17T07:30:39;94431.00;;;26.51;42.63
10518;BME280;5307;42.548;22.968;2022-07-17T07:33:05;94417.44;;;26.69;44.59
10518;BME280;5307;42.548;22.968;2022-07-17T07:35:32;94423.88;;;26.90;41.26
10518;BME280;5307;42.548;22.968;2022-07-17T07:38:00;94426.38;;;25.95;41.55
10518;BME280;5307;42.548;22.968;2022-07-17T07:40:28;94421.09;;;26.63;40.81
10518;BME280;5307;42.548;22.968;2022-07-17T07:42:56;94418.38;;;26.84;40.46
10518;BME280;5307;42.548;22.968;2022-07-17T07:45:23;94414.19;;;27.04;41.11
10518;BME280;5307;42.548;22.968;2022-07-17T07:47:50;94418.47;;;27.18;39.83
10518;BME280;5307;42.548;22.968;2022-07-17T07:50:19;94427.66;;;27.06;38.81
10518;BME280;5307;42.548;22.968;2022-07-17T07:52:48;94424.16;;;27.26;41.74
10518;BME280;5307;42.548;22.968;2022-07-17T07:55:16;94424.31;;;26.94;37.72
10518;BME280;5307;42.548;22.968;2022-07-17T07:57:43;94426.41;;;27.28;38.70
10518;BME280;5307;42.548;22.968;2022-07-17T08:00:11;94425.28;;;27.44;40.24
10518;BME280;5307;42.548;22.968;2022-07-17T08:02:39;94416.44;;;27.06;39.75
10518;BME280;5307;42.548;22.968;2022-07-17T08:05:07;94433.81;;;27.04;38.37
10518;BME280;5307;42.548;22.968;2022-07-17T08:07:34;94440.19;;;27.05;37.42
10518;BME280;5307;42.548;22.968;2022-07-17T08:10:02;94430.81;;;26.62;36.79
10518;BME280;5307;42.548;22.968;2022-07-17T08:12:31;94425.06;;;27.42;37.13
10518;BME280;5307;42.548;22.968;2022-07-17T08:14:58;94429.91;;;27.07;36.51
10518;BME280;5307;42.548;22.968;2022-07-17T08:17:25;94434.94;;;27.56;36.71
10518;BME280;5307;42.548;22.968;2022-07-17T08:19:52;94438.03;;;27.79;38.54
10518;BME280;5307;42.548;22.968;2022-07-17T08:22:18;94432.56;;;27.73;36.96
10518;BME280;5307;42.548;22.968;2022-07-17T08:24:45;94425.41;;;27.04;36.72
10518;BME280;5307;42.548;22.968;2022-07-17T08:27:12;94438.53;;;26.56;38.02
10518;BME280;5307;42.548;22.968;2022-07-17T08:29:40;94430.47;;;26.53;38.13
10518;BME280;5307;42.548;22.968;2022-07-17T08:32:08;94428.84;;;26.84;38.32
10518;BME280;5307;42.548;22.968;2022-07-17T08:37:54;94426.72;;;27.71;39.58
10518;BME280;5307;42.548;22.968;2022-07-17T08:40:23;94430.81;;;27.70;37.22
10518;BME280;5307;42.548;22.968;2022-07-17T08:43:00;94427.97;;;28.04;38.08
10518;BME280;5307;42.548;22.968;2022-07-17T08:45:30;94432.13;;;27.56;36.77
10518;BME280;5307;42.548;22.968;2022-07-17T08:47:58;94426.84;;;27.32;37.88
10518;BME280;5307;42.548;22.968;2022-07-17T08:50:33;94423.84;;;28.26;37.65
10518;BME280;5307;42.548;22.968;2022-07-17T08:53:02;94421.78;;;27.85;36.27
10518;BME280;5307;42.548;22.968;2022-07-17T08:55:30;94415.41;;;28.26;34.88
10518;BME280;5307;42.548;22.968;2022-07-17T08:58:17;94424.31;;;28.17;36.52
10518;BME280;5307;42.548;22.968;2022-07-17T09:00:46;94413.81;;;28.38;35.08
10518;BME280;5307;42.548;22.968;2022-07-17T09:03:16;94408.03;;;28.16;36.77
10518;BME280;5307;42.548;22.968;2022-07-17T09:05:44;94412.34;;;28.74;35.10
10518;BME280;5307;42.548;22.968;2022-07-17T09:08:16;94408.78;;;28.73;36.35
10518;BME280;5307;42.548;22.968;2022-07-17T09:10:45;94420.16;;;27.90;34.70
10518;BME280;5307;42.548;22.968;2022-07-17T09:13:18;94411.72;;;28.31;35.39
10518;BME280;5307;42.548;22.968;2022-07-17T09:15:47;94408.25;;;28.75;37.71
10518;BME280;5307;42.548;22.968;2022-07-17T09:18:15;94408.75;;;28.65;35.21
10518;BME280;5307;42.548;22.968;2022-07-17T09:20:48;94412.50;;;27.90;34.92
10518;BME280;5307;42.548;22.968;2022-07-17T09:23:16;94402.44;;;28.44;38.76
10518;BME280;5307;42.548;22.968;2022-07-17T09:25:45;94405.19;;;28.65;36.04
10518;BME280;5307;42.548;22.968;2022-07-17T09:28:14;94405.97;;;29.09;37.09
10518;BME280;5307;42.548;22.968;2022-07-17T09:30:43;94419.28;;;29.01;34.58
10518;BME280;5307;42.548;22.968;2022-07-17T09:33:17;94401.41;;;28.62;33.48
10518;BME280;5307;42.548;22.968;2022-07-17T09:35:49;94407.97;;;28.93;38.23
10518;BME280;5307;42.548;22.968;2022-07-17T09:38:27;94425.13;;;28.25;35.82
10518;BME280;5307;42.548;22.968;2022-07-17T09:41:08;94419.94;;;28.58;34.46
10518;BME280;5307;42.548;22.968;2022-07-17T09:43:40;94420.00;;;28.37;34.61
10518;BME280;5307;42.548;22.968;2022-07-17T09:46:08;94413.22;;;28.32;36.18
10518;BME280;5307;42.548;22.968;2022-07-17T09:48:42;94413.69;;;28.23;34.40
10518;BME280;5307;42.548;22.968;2022-07-17T09:51:15;94417.28;;;28.52;34.91
10518;BME280;5307;42.548;22.968;2022-07-17T09:53:44;94416.69;;;28.46;37.34
10518;BME280;5307;42.548;22.968;2022-07-17T09:56:14;94404.03;;;28.60;37.87
10518;BME280;5307;42.548;22.968;2022-07-17T09:58:43;94402.47;;;28.52;35.60
10518;BME280;5307;42.548;22.968;2022-07-17T10:01:14;94410.22;;;28.95;35.80
10518;BME280;5307;42.548;22.968;2022-07-17T10:03:44;94402.91;;;28.14;35.09
10518;BME280;5307;42.548;22.968;2022-07-17T10:06:11;94404.53;;;28.51;35.16
10518;BME280;5307;42.548;22.968;2022-07-17T10:08:38;94403.19;;;28.81;35.04
10518;BME280;5307;42.548;22.968;2022-07-17T10:11:06;94412.41;;;29.25;36.07
10518;BME280;5307;42.548;22.968;2022-07-17T10:13:35;94410.22;;;28.87;34.24
10518;BME280;5307;42.548;22.968;2022-07-17T10:16:03;94402.16;;;28.91;34.80
10518;BME280;5307;42.548;22.968;2022-07-17T10:18:34;94408.84;;;28.52;35.48
10518;BME280;5307;42.548;22.968;2022-07-17T10:21:15;94400.47;;;28.88;34.73
10518;BME280;5307;42.548;22.968;2022-07-17T10:23:42;94393.03;;;28.42;36.58
10518;BME280;5307;42.548;22.968;2022-07-17T10:26:10;94403.25;;;29.40;36.99
10518;BME280;5307;42.548;22.968;2022-07-17T10:28:42;94396.84;;;29.24;35.77
10518;BME280;5307;42.548;22.968;2022-07-17T10:31:09;94392.38;;;29.36;37.94
10518;BME280;5307;42.548;22.968;2022-07-17T10:33:36;94392.00;;;29.32;36.06
10518;BME280;5307;42.548;22.968;2022-07-17T10:36:04;94390.28;;;29.21;34.62
10518;BME280;5307;42.548;22.968;2022-07-17T10:38:40;94386.56;;;29.42;36.29
10518;BME280;5307;42.548;22.968;2022-07-17T10:41:07;94395.84;;;29.58;34.81
10518;BME280;5307;42.548;22.968;2022-07-17T10:43:42;94377.81;;;29.53;34.56
10518;BME280;5307;42.548;22.968;2022-07-17T10:46:10;94389.84;;;29.69;36.00
10518;BME280;5307;42.548;22.968;2022-07-17T10:48:39;94387.19;;;29.48;35.51
10518;BME280;5307;42.548;22.968;2022-07-17T10:51:07;94382.81;;;29.32;35.65
10518;BME280;5307;42.548;22.968;2022-07-17T10:53:35;94385.25;;;29.35;38.82
10518;BME280;5307;42.548;22.968;2022-07-17T10:56:03;94373.16;;;29.12;34.90
10518;BME280;5307;42.548;22.968;2022-07-17T10:58:32;94378.22;;;29.57;34.86
10518;BME280;5307;42.548;22.968;2022-07-17T11:01:02;94371.13;;;28.76;35.02
10518;BME280;5307;42.548;22.968;2022-07-17T11:03:30;94376.25;;;29.29;34.08
10518;BME280;5307;42.548;22.968;2022-07-17T11:06:06;94360.72;;;28.92;34.80
10518;BME280;5307;42.548;22.968;2022-07-17T11:08:39;94369.53;;;29.47;35.24
10518;BME280;5307;42.548;22.968;2022-07-17T11:11:06;94367.00;;;29.21;34.09
10518;BME280;5307;42.548;22.968;2022-07-17T11:13:33;94367.28;;;29.53;33.78
10518;BME280;5307;42.548;22.968;2022-07-17T11:16:00;94373.47;;;29.44;34.64
10518;BME280;5307;42.548;22.968;2022-07-17T11:18:27;94373.00;;;29.25;37.92
10518;BME280;5307;42.548;22.968;2022-07-17T11:20:57;94362.31;;;29.23;37.39
10518;BME280;5307;42.548;22.968;2022-07-17T11:23:26;94348.84;;;29.30;35.54
10518;BME280;5307;42.548;22.968;2022-07-17T11:25:59;94364.81;;;29.42;38.30
10518;BME280;5307;42.548;22.968;2022-07-17T11:28:31;94361.69;;;28.66;33.15
10518;BME280;5307;42.548;22.968;2022-07-17T11:30:58;94364.94;;;29.21;34.27
10518;BME280;5307;42.548;22.968;2022-07-17T11:33:26;94363.44;;;29.20;33.43
10518;BME280;5307;42.548;22.968;2022-07-17T11:35:53;94362.34;;;29.31;33.34
10518;BME280;5307;42.548;22.968;2022-07-17T11:38:26;94350.47;;;28.66;34.36
10518;BME280;5307;42.548;22.968;2022-07-17T11:40:53;94368.72;;;28.23;34.96
10518;BME280;5307;42.548;22.968;2022-07-17T11:43:22;94363.34;;;28.90;39.09
10518;BME280;5307;42.548;22.968;2022-07-17T11:45:49;94359.28;;;29.06;38.02
10518;BME280;5307;42.548;22.968;2022-07-17T11:48:16;94351.91;;;28.95;35.60
10518;BME280;5307;42.548;22.968;2022-07-17T11:50:52;94336.03;;;29.06;34.87
10518;BME280;5307;42.548;22.968;2022-07-17T11:53:31;94355.56;;;28.75;34.44
10518;BME280;5307;42.548;22.968;2022-07-17T11:55:58;94350.13;;;28.77;34.86
10518;BME280;5307;42.548;22.968;2022-07-17T11:58:26;94350.28;;;29.08;38.09
10518;BME280;5307;42.548;22.968;2022-07-17T12:01:01;94340.63;;;28.52;34.75
10518;BME280;5307;42.548;22.968;2022-07-17T12:03:27;94336.38;;;28.58;34.66
10518;BME280;5307;42.548;22.968;2022-07-17T12:05:54;94346.16;;;28.65;35.82
10518;BME280;5307;42.548;22.968;2022-07-17T12:08:21;94336.91;;;28.57;36.88
10518;BME280;5307;42.548;22.968;2022-07-17T12:11:05;94337.88;;;28.59;37.93
10518;BME280;5307;42.548;22.968;2022-07-17T12:13:41;94350.53;;;28.81;36.98
10518;BME280;5307;42.548;22.968;2022-07-17T12:16:23;94346.91;;;28.29;35.34
10518;BME280;5307;42.548;22.968;2022-07-17T12:19:15;94344.28;;;28.31;37.04
10518;BME280;5307;42.548;22.968;2022-07-17T12:21:51;94337.63;;;28.50;37.92
10518;BME280;5307;42.548;22.968;2022-07-17T12:24:21;94336.06;;;28.33;37.71
10518;BME280;5307;42.548;22.968;2022-07-17T12:26:48;94340.06;;;28.46;35.85
10518;BME280;5307;42.548;22.968;2022-07-17T12:29:17;94336.94;;;28.28;34.46
10518;BME280;5307;42.548;22.968;2022-07-17T12:31:45;94336.91;;;28.57;35.42
10518;BME280;5307;42.548;22.968;2022-07-17T12:34:12;94342.94;;;28.61;37.44
10518;BME280;5307;42.548;22.968;2022-07-17T12:36:39;94330.81;;;28.37;35.71
10518;BME280;5307;42.548;22.968;2022-07-17T12:39:06;94328.31;;;28.26;34.80
10518;BME280;5307;42.548;22.968;2022-07-17T12:41:32;94326.50;;;28.08;35.40
10518;BME280;5307;42.548;22.968;2022-07-17T12:43:59;94326.88;;;28.33;35.54
10518;BME280;5307;42.548;22.968;2022-07-17T12:46:27;94335.22;;;28.54;37.24
10518;BME280;5307;42.548;22.968;2022-07-17T12:48:54;94323.31;;;28.32;35.95
10518;BME280;5307;42.548;22.968;2022-07-17T12:51:22;94327.22;;;28.29;36.21
10518;BME280;5307;42.548;22.968;2022-07-17T12:53:48;94332.28;;;28.31;35.73
10518;BME280;5307;42.548;22.968;2022-07-17T12:56:15;94330.03;;;28.29;36.13
10518;BME280;5307;42.548;22.968;2022-07-17T12:58:42;94324.63;;;28.10;34.38
10518;BME280;5307;42.548;22.968;2022-07-17T13:01:09;94328.81;;;27.89;34.06
10518;BME280;5307;42.548;22.968;2022-07-17T13:03:37;94321.38;;;28.27;36.23
10518;BME280;5307;42.548;22.968;2022-07-17T13:06:05;94325.69;;;28.28;36.92
10518;BME280;5307;42.548;22.968;2022-07-17T13:08:32;94325.00;;;28.35;40.89